sensor_id;sensor_type;location;lat;lon;timestamp;P1;durP1;ratioP1;P2;durP2;ratioP2
51042;SDS011;37078;45.806;9.084;2022-10-18T00:01:51;25.40;;;13.23;;
51042;SDS011;37078;45.806;9.084;2022-10-18T00:04:16;24.05;;;12.68;;
51042;SDS011;37078;45.806;9.084;2022-10-18T00:06:41;25.15;;;13.52;;
51042;SDS011;37078;45.806;9.084;2022-10-18T00:09:07;23.88;;;12.23;;
51042;SDS011;37078;45.806;9.084;2022-10-18T00:11:32;24.38;;;12.57;;
51042;SDS011;37078;45.806;9.084;2022-10-18T00:13:58;23.83;;;12.88;;
51042;SDS011;37078;45.806;9.084;2022-10-18T00:16:23;24.63;;;12.60;;
51042;SDS011;37078;45.806;9.084;2022-10-18T00:18:49;21.63;;;12.18;;
51042;SDS011;37078;45.806;9.084;2022-10-18T00:21:16;23.90;;;12.27;;
51042;SDS011;37078;45.806;9.084;2022-10-18T00:23:44;23.83;;;12.75;;
51042;SDS011;37078;45.806;9.084;2022-10-18T00:26:12;22.40;;;11.55;;
51042;SDS011;37078;45.806;9.084;2022-10-18T00:28:39;22.50;;;12.57;;
51042;SDS011;37078;45.806;9.084;2022-10-18T00:31:47;23.05;;;12.57;;
51042;SDS011;37078;45.806;9.084;2022-10-18T00:33:58;22.00;;;12.18;;
51042;SDS011;37078;45.806;9.084;2022-10-18T00:36:31;22.80;;;11.38;;
51042;SDS011;37078;45.806;9.084;2022-10-18T00:39:01;23.23;;;12.70;;
51042;SDS011;37078;45.806;9.084;2022-10-18T00:41:29;22.55;;;12.02;;
51042;SDS011;37078;45.806;9.084;2022-10-18T00:44:00;22.95;;;12.18;;
51042;SDS011;37078;45.806;9.084;2022-10-18T00:46:31;22.98;;;11.85;;
51042;SDS011;37078;45.806;9.084;2022-10-18T00:49:03;21.60;;;11.43;;
51042;SDS011;37078;45.806;9.084;2022-10-18T00:51:39;20.40;;;11.90;;
51042;SDS011;37078;45.806;9.084;2022-10-18T00:54:08;21.42;;;11.65;;
51042;SDS011;37078;45.806;9.084;2022-10-18T00:56:33;22.10;;;11.98;;
51042;SDS011;37078;45.806;9.084;2022-10-18T00:58:59;22.50;;;11.95;;
51042;SDS011;37078;45.806;9.084;2022-10-18T01:01:25;21.23;;;11.98;;
51042;SDS011;37078;45.806;9.084;2022-10-18T01:03:51;21.02;;;10.88;;
51042;SDS011;37078;45.806;9.084;2022-10-18T01:06:17;22.60;;;11.63;;
51042;SDS011;37078;45.806;9.084;2022-10-18T01:08:44;22.30;;;11.45;;
51042;SDS011;37078;45.806;9.084;2022-10-18T01:11:31;20.27;;;11.55;;
51042;SDS011;37078;45.806;9.084;2022-10-18T01:32:52;21.45;;;11.40;;
51042;SDS011;37078;45.806;9.084;2022-10-18T01:35:24;21.88;;;11.75;;
51042;SDS011;37078;45.806;9.084;2022-10-18T01:37:54;23.52;;;11.88;;
51042;SDS011;37078;45.806;9.084;2022-10-18T01:42:48;20.95;;;11.35;;
51042;SDS011;37078;45.806;9.084;2022-10-18T01:45:15;21.70;;;11.68;;
51042;SDS011;37078;45.806;9.084;2022-10-18T01:47:43;21.10;;;11.65;;
51042;SDS011;37078;45.806;9.084;2022-10-18T01:50:11;21.33;;;11.60;;
51042;SDS011;37078;45.806;9.084;2022-10-18T01:52:49;19.38;;;11.00;;
51042;SDS011;37078;45.806;9.084;2022-10-18T01:55:16;19.77;;;11.10;;
51042;SDS011;37078;45.806;9.084;2022-10-18T01:57:47;19.80;;;11.65;;
51042;SDS011;37078;45.806;9.084;2022-10-18T02:00:23;22.27;;;11.27;;
51042;SDS011;37078;45.806;9.084;2022-10-18T02:02:56;21.90;;;11.48;;
51042;SDS011;37078;45.806;9.084;2022-10-18T02:05:31;19.88;;;11.88;;
51042;SDS011;37078;45.806;9.084;2022-10-18T02:11:21;21.48;;;11.32;;
51042;SDS011;37078;45.806;9.084;2022-10-18T02:13:29;20.77;;;11.43;;
51042;SDS011;37078;45.806;9.084;2022-10-18T02:16:02;20.15;;;11.18;;
51042;SDS011;37078;45.806;9.084;2022-10-18T02:18:38;19.85;;;11.55;;
51042;SDS011;37078;45.806;9.084;2022-10-18T02:21:07;20.70;;;11.75;;
51042;SDS011;37078;45.806;9.084;2022-10-18T02:23:37;22.50;;;11.82;;
51042;SDS011;37078;45.806;9.084;2022-10-18T02:26:04;21.85;;;11.15;;
51042;SDS011;37078;45.806;9.084;2022-10-18T02:28:30;19.60;;;10.88;;
51042;SDS011;37078;45.806;9.084;2022-10-18T02:36:20;21.00;;;11.77;;
51042;SDS011;37078;45.806;9.084;2022-10-18T02:38:51;21.60;;;12.07;;
51042;SDS011;37078;45.806;9.084;2022-10-18T02:41:24;21.27;;;11.50;;
51042;SDS011;37078;45.806;9.084;2022-10-18T02:43:51;20.98;;;11.98;;
51042;SDS011;37078;45.806;9.084;2022-10-18T02:46:17;19.35;;;10.43;;
51042;SDS011;37078;45.806;9.084;2022-10-18T02:48:44;19.42;;;11.10;;
51042;SDS011;37078;45.806;9.084;2022-10-18T02:51:09;20.10;;;10.45;;
51042;SDS011;37078;45.806;9.084;2022-10-18T02:53:35;20.40;;;11.10;;
51042;SDS011;37078;45.806;9.084;2022-10-18T02:56:00;19.60;;;11.32;;
51042;SDS011;37078;45.806;9.084;2022-10-18T02:58:27;19.13;;;10.70;;
51042;SDS011;37078;45.806;9.084;2022-10-18T03:00:53;21.50;;;11.02;;
51042;SDS011;37078;45.806;9.084;2022-10-18T03:03:18;20.92;;;10.95;;
51042;SDS011;37078;45.806;9.084;2022-10-18T03:05:43;20.75;;;10.30;;
51042;SDS011;37078;45.806;9.084;2022-10-18T03:08:09;20.48;;;11.05;;
51042;SDS011;37078;45.806;9.084;2022-10-18T03:10:34;18.25;;;10.48;;
51042;SDS011;37078;45.806;9.084;2022-10-18T03:12:59;20.90;;;10.98;;
51042;SDS011;37078;45.806;9.084;2022-10-18T03:15:25;21.55;;;10.90;;
51042;SDS011;37078;45.806;9.084;2022-10-18T03:17:50;19.58;;;10.65;;
51042;SDS011;37078;45.806;9.084;2022-10-18T03:20:16;20.10;;;10.90;;
51042;SDS011;37078;45.806;9.084;2022-10-18T03:22:41;19.95;;;11.07;;
51042;SDS011;37078;45.806;9.084;2022-10-18T03:25:06;20.40;;;10.73;;
51042;SDS011;37078;45.806;9.084;2022-10-18T03:27:32;19.75;;;10.57;;
51042;SDS011;37078;45.806;9.084;2022-10-18T03:29:57;18.95;;;10.95;;
51042;SDS011;37078;45.806;9.084;2022-10-18T03:32:23;19.50;;;10.77;;
51042;SDS011;37078;45.806;9.084;2022-10-18T03:34:49;18.15;;;10.02;;
51042;SDS011;37078;45.806;9.084;2022-10-18T03:37:14;19.00;;;10.35;;
51042;SDS011;37078;45.806;9.084;2022-10-18T03:39:39;20.17;;;10.50;;
51042;SDS011;37078;45.806;9.084;2022-10-18T03:42:05;19.38;;;10.52;;
51042;SDS011;37078;45.806;9.084;2022-10-18T03:44:30;20.27;;;10.65;;
51042;SDS011;37078;45.806;9.084;2022-10-18T03:46:55;20.73;;;11.18;;
51042;SDS011;37078;45.806;9.084;2022-10-18T03:49:21;19.42;;;10.50;;
51042;SDS011;37078;45.806;9.084;2022-10-18T03:51:46;19.50;;;10.70;;
51042;SDS011;37078;45.806;9.084;2022-10-18T03:54:11;19.77;;;10.30;;
51042;SDS011;37078;45.806;9.084;2022-10-18T03:56:37;20.50;;;11.07;;
51042;SDS011;37078;45.806;9.084;2022-10-18T03:59:02;20.65;;;10.15;;
51042;SDS011;37078;45.806;9.084;2022-10-18T04:01:28;20.23;;;10.40;;
51042;SDS011;37078;45.806;9.084;2022-10-18T04:03:54;19.58;;;10.77;;
51042;SDS011;37078;45.806;9.084;2022-10-18T04:06:19;20.50;;;10.70;;
51042;SDS011;37078;45.806;9.084;2022-10-18T04:08:45;19.13;;;10.23;;
51042;SDS011;37078;45.806;9.084;2022-10-18T04:11:10;18.63;;;10.43;;
51042;SDS011;37078;45.806;9.084;2022-10-18T04:13:36;17.65;;;9.90;;
51042;SDS011;37078;45.806;9.084;2022-10-18T04:16:02;18.65;;;9.82;;
51042;SDS011;37078;45.806;9.084;2022-10-18T04:18:27;20.08;;;10.45;;
51042;SDS011;37078;45.806;9.084;2022-10-18T04:20:53;18.60;;;10.27;;
51042;SDS011;37078;45.806;9.084;2022-10-18T04:23:18;20.45;;;10.52;;
51042;SDS011;37078;45.806;9.084;2022-10-18T04:25:43;20.60;;;10.60;;
51042;SDS011;37078;45.806;9.084;2022-10-18T04:28:09;18.85;;;10.35;;
51042;SDS011;37078;45.806;9.084;2022-10-18T04:30:34;17.90;;;9.80;;
51042;SDS011;37078;45.806;9.084;2022-10-18T04:33:00;19.00;;;9.73;;
51042;SDS011;37078;45.806;9.084;2022-10-18T04:35:25;18.13;;;9.68;;
51042;SDS011;37078;45.806;9.084;2022-10-18T04:37:52;17.77;;;9.57;;
51042;SDS011;37078;45.806;9.084;2022-10-18T04:40:18;18.23;;;9.38;;
51042;SDS011;37078;45.806;9.084;2022-10-18T04:42:44;18.80;;;9.88;;
51042;SDS011;37078;45.806;9.084;2022-10-18T04:45:10;18.58;;;9.65;;
51042;SDS011;37078;45.806;9.084;2022-10-18T04:47:35;17.67;;;9.65;;
51042;SDS011;37078;45.806;9.084;2022-10-18T04:50:01;19.48;;;10.48;;
51042;SDS011;37078;45.806;9.084;2022-10-18T04:52:26;18.73;;;10.15;;
51042;SDS011;37078;45.806;9.084;2022-10-18T04:54:52;18.02;;;10.00;;
51042;SDS011;37078;45.806;9.084;2022-10-18T04:57:17;18.25;;;9.57;;
51042;SDS011;37078;45.806;9.084;2022-10-18T04:59:42;18.58;;;10.18;;
51042;SDS011;37078;45.806;9.084;2022-10-18T05:02:08;18.17;;;9.68;;
51042;SDS011;37078;45.806;9.084;2022-10-18T05:04:33;16.92;;;9.20;;
51042;SDS011;37078;45.806;9.084;2022-10-18T05:06:58;18.85;;;10.45;;
51042;SDS011;37078;45.806;9.084;2022-10-18T05:09:24;18.65;;;10.00;;
51042;SDS011;37078;45.806;9.084;2022-10-18T05:11:49;17.55;;;9.45;;
51042;SDS011;37078;45.806;9.084;2022-10-18T05:14:15;17.45;;;9.40;;
51042;SDS011;37078;45.806;9.084;2022-10-18T05:16:40;18.17;;;10.30;;
51042;SDS011;37078;45.806;9.084;2022-10-18T05:19:06;18.33;;;9.63;;
51042;SDS011;37078;45.806;9.084;2022-10-18T05:21:31;17.25;;;9.45;;
51042;SDS011;37078;45.806;9.084;2022-10-18T05:23:57;19.23;;;9.75;;
51042;SDS011;37078;45.806;9.084;2022-10-18T05:26:23;18.67;;;9.40;;
51042;SDS011;37078;45.806;9.084;2022-10-18T05:28:48;17.83;;;10.13;;
51042;SDS011;37078;45.806;9.084;2022-10-18T05:31:14;17.42;;;9.45;;
51042;SDS011;37078;45.806;9.084;2022-10-18T05:33:40;19.90;;;9.93;;
51042;SDS011;37078;45.806;9.084;2022-10-18T05:36:05;17.60;;;9.13;;
51042;SDS011;37078;45.806;9.084;2022-10-18T05:38:31;17.35;;;9.20;;
51042;SDS011;37078;45.806;9.084;2022-10-18T05:40:57;18.10;;;9.70;;
51042;SDS011;37078;45.806;9.084;2022-10-18T05:43:26;18.02;;;9.77;;
51042;SDS011;37078;45.806;9.084;2022-10-18T05:48:18;18.02;;;9.50;;
51042;SDS011;37078;45.806;9.084;2022-10-18T05:50:43;18.75;;;10.10;;
51042;SDS011;37078;45.806;9.084;2022-10-18T05:53:09;18.88;;;9.85;;
51042;SDS011;37078;45.806;9.084;2022-10-18T05:55:34;17.95;;;9.77;;
51042;SDS011;37078;45.806;9.084;2022-10-18T05:58:00;17.42;;;9.48;;
51042;SDS011;37078;45.806;9.084;2022-10-18T06:00:26;18.88;;;10.13;;
51042;SDS011;37078;45.806;9.084;2022-10-18T06:02:52;19.58;;;9.27;;
51042;SDS011;37078;45.806;9.084;2022-10-18T06:05:17;32.70;;;10.50;;
51042;SDS011;37078;45.806;9.084;2022-10-18T06:07:43;19.33;;;9.95;;
51042;SDS011;37078;45.806;9.084;2022-10-18T06:10:08;24.45;;;9.63;;
51042;SDS011;37078;45.806;9.084;2022-10-18T06:12:34;19.98;;;10.18;;
51042;SDS011;37078;45.806;9.084;2022-10-18T06:14:59;21.63;;;9.73;;
51042;SDS011;37078;45.806;9.084;2022-10-18T06:17:24;19.30;;;10.00;;
51042;SDS011;37078;45.806;9.084;2022-10-18T06:19:50;21.67;;;10.25;;
51042;SDS011;37078;45.806;9.084;2022-10-18T06:22:15;22.25;;;10.40;;
51042;SDS011;37078;45.806;9.084;2022-10-18T06:24:40;23.05;;;10.70;;
51042;SDS011;37078;45.806;9.084;2022-10-18T06:27:06;23.08;;;9.88;;
51042;SDS011;37078;45.806;9.084;2022-10-18T06:29:34;19.83;;;10.00;;
51042;SDS011;37078;45.806;9.084;2022-10-18T06:32:00;19.95;;;10.20;;
51042;SDS011;37078;45.806;9.084;2022-10-18T06:34:25;21.05;;;9.38;;
51042;SDS011;37078;45.806;9.084;2022-10-18T06:36:50;20.88;;;9.80;;
51042;SDS011;37078;45.806;9.084;2022-10-18T06:39:16;21.95;;;9.48;;
51042;SDS011;37078;45.806;9.084;2022-10-18T06:41:41;18.67;;;9.60;;
51042;SDS011;37078;45.806;9.084;2022-10-18T06:44:07;18.35;;;9.25;;
51042;SDS011;37078;45.806;9.084;2022-10-18T06:46:38;19.35;;;9.50;;
51042;SDS011;37078;45.806;9.084;2022-10-18T06:49:04;21.13;;;9.63;;
51042;SDS011;37078;45.806;9.084;2022-10-18T06:51:30;22.55;;;9.60;;
51042;SDS011;37078;45.806;9.084;2022-10-18T06:53:55;20.50;;;9.60;;
51042;SDS011;37078;45.806;9.084;2022-10-18T06:56:21;21.20;;;10.07;;
51042;SDS011;37078;45.806;9.084;2022-10-18T06:58:46;19.02;;;9.40;;
51042;SDS011;37078;45.806;9.084;2022-10-18T07:01:12;19.35;;;8.98;;
51042;SDS011;37078;45.806;9.084;2022-10-18T07:03:40;22.38;;;9.30;;
51042;SDS011;37078;45.806;9.084;2022-10-18T07:06:07;20.38;;;9.38;;
51042;SDS011;37078;45.806;9.084;2022-10-18T07:08:33;19.65;;;8.88;;
51042;SDS011;37078;45.806;9.084;2022-10-18T07:10:59;18.85;;;8.90;;
51042;SDS011;37078;45.806;9.084;2022-10-18T07:13:26;20.50;;;8.80;;
51042;SDS011;37078;45.806;9.084;2022-10-18T07:16:07;20.65;;;9.10;;
51042;SDS011;37078;45.806;9.084;2022-10-18T07:18:36;17.50;;;8.45;;
51042;SDS011;37078;45.806;9.084;2022-10-18T07:21:04;18.30;;;8.20;;
51042;SDS011;37078;45.806;9.084;2022-10-18T07:23:34;20.90;;;9.00;;
51042;SDS011;37078;45.806;9.084;2022-10-18T07:26:02;18.33;;;9.35;;
51042;SDS011;37078;45.806;9.084;2022-10-18T07:28:35;20.20;;;8.95;;
51042;SDS011;37078;45.806;9.084;2022-10-18T07:31:05;19.90;;;9.10;;
51042;SDS011;37078;45.806;9.084;2022-10-18T07:33:32;20.02;;;8.88;;
51042;SDS011;37078;45.806;9.084;2022-10-18T07:36:01;17.77;;;8.82;;
51042;SDS011;37078;45.806;9.084;2022-10-18T07:38:28;16.98;;;8.70;;
51042;SDS011;37078;45.806;9.084;2022-10-18T07:40:57;19.55;;;8.85;;
51042;SDS011;37078;45.806;9.084;2022-10-18T07:43:26;18.10;;;8.90;;
51042;SDS011;37078;45.806;9.084;2022-10-18T07:45:53;20.27;;;9.10;;
51042;SDS011;37078;45.806;9.084;2022-10-18T07:48:19;19.95;;;9.15;;
51042;SDS011;37078;45.806;9.084;2022-10-18T07:50:45;20.60;;;8.82;;
51042;SDS011;37078;45.806;9.084;2022-10-18T07:53:10;20.90;;;9.10;;
51042;SDS011;37078;45.806;9.084;2022-10-18T07:55:35;24.27;;;8.80;;
51042;SDS011;37078;45.806;9.084;2022-10-18T07:58:01;18.52;;;8.43;;
51042;SDS011;37078;45.806;9.084;2022-10-18T08:00:26;20.45;;;8.93;;
51042;SDS011;37078;45.806;9.084;2022-10-18T08:02:54;21.48;;;8.70;;
51042;SDS011;37078;45.806;9.084;2022-10-18T08:05:20;17.50;;;8.75;;
51042;SDS011;37078;45.806;9.084;2022-10-18T08:07:45;19.20;;;8.95;;
51042;SDS011;37078;45.806;9.084;2022-10-18T08:10:11;18.98;;;8.70;;
51042;SDS011;37078;45.806;9.084;2022-10-18T08:12:36;17.23;;;9.43;;
51042;SDS011;37078;45.806;9.084;2022-10-18T08:15:02;16.77;;;9.02;;
51042;SDS011;37078;45.806;9.084;2022-10-18T08:17:27;18.83;;;9.40;;
51042;SDS011;37078;45.806;9.084;2022-10-18T08:19:53;20.98;;;9.93;;
51042;SDS011;37078;45.806;9.084;2022-10-18T08:22:18;19.50;;;9.35;;
51042;SDS011;37078;45.806;9.084;2022-10-18T08:24:43;20.55;;;8.80;;
51042;SDS011;37078;45.806;9.084;2022-10-18T08:27:09;17.52;;;8.43;;
51042;SDS011;37078;45.806;9.084;2022-10-18T08:29:34;18.02;;;9.00;;
51042;SDS011;37078;45.806;9.084;2022-10-18T08:31:59;17.20;;;8.80;;
51042;SDS011;37078;45.806;9.084;2022-10-18T08:34:25;18.55;;;8.98;;
51042;SDS011;37078;45.806;9.084;2022-10-18T08:36:50;19.17;;;8.68;;
51042;SDS011;37078;45.806;9.084;2022-10-18T08:39:15;18.42;;;8.50;;
51042;SDS011;37078;45.806;9.084;2022-10-18T08:44:29;17.08;;;8.63;;
51042;SDS011;37078;45.806;9.084;2022-10-18T08:47:01;18.77;;;8.85;;
51042;SDS011;37078;45.806;9.084;2022-10-18T08:51:55;18.20;;;8.48;;
51042;SDS011;37078;45.806;9.084;2022-10-18T08:57:00;21.00;;;9.00;;
51042;SDS011;37078;45.806;9.084;2022-10-18T08:59:33;22.92;;;9.65;;
51042;SDS011;37078;45.806;9.084;2022-10-18T09:07:44;34.35;;;12.77;;
51042;SDS011;37078;45.806;9.084;2022-10-18T09:13:20;34.40;;;12.82;;
51042;SDS011;37078;45.806;9.084;2022-10-18T09:16:05;31.50;;;12.93;;
51042;SDS011;37078;45.806;9.084;2022-10-18T09:21:52;30.02;;;11.52;;
51042;SDS011;37078;45.806;9.084;2022-10-18T09:24:33;35.42;;;12.30;;
51042;SDS011;37078;45.806;9.084;2022-10-18T09:27:04;33.65;;;11.77;;
51042;SDS011;37078;45.806;9.084;2022-10-18T09:34:46;26.70;;;10.23;;
51042;SDS011;37078;45.806;9.084;2022-10-18T09:37:17;27.63;;;10.90;;
51042;SDS011;37078;45.806;9.084;2022-10-18T09:39:45;27.30;;;10.02;;
51042;SDS011;37078;45.806;9.084;2022-10-18T09:42:23;29.55;;;11.70;;
51042;SDS011;37078;45.806;9.084;2022-10-18T09:45:14;27.00;;;9.30;;
51042;SDS011;37078;45.806;9.084;2022-10-18T09:47:45;26.13;;;9.30;;
51042;SDS011;37078;45.806;9.084;2022-10-18T09:50:49;26.00;;;9.70;;
51042;SDS011;37078;45.806;9.084;2022-10-18T09:53:12;23.77;;;9.48;;
51042;SDS011;37078;45.806;9.084;2022-10-18T09:55:52;23.77;;;9.30;;
51042;SDS011;37078;45.806;9.084;2022-10-18T09:58:18;25.52;;;10.02;;
51042;SDS011;37078;45.806;9.084;2022-10-18T10:00:47;25.23;;;9.25;;
51042;SDS011;37078;45.806;9.084;2022-10-18T10:03:14;24.45;;;8.55;;
51042;SDS011;37078;45.806;9.084;2022-10-18T10:05:40;22.63;;;8.45;;
51042;SDS011;37078;45.806;9.084;2022-10-18T10:08:06;22.00;;;9.15;;
51042;SDS011;37078;45.806;9.084;2022-10-18T10:10:32;23.05;;;8.85;;
51042;SDS011;37078;45.806;9.084;2022-10-18T10:13:09;21.83;;;8.57;;
51042;SDS011;37078;45.806;9.084;2022-10-18T10:15:44;24.13;;;9.82;;
51042;SDS011;37078;45.806;9.084;2022-10-18T10:18:19;25.48;;;10.55;;
51042;SDS011;37078;45.806;9.084;2022-10-18T10:20:49;32.05;;;13.15;;
51042;SDS011;37078;45.806;9.084;2022-10-18T10:25:54;39.67;;;13.85;;
51042;SDS011;37078;45.806;9.084;2022-10-18T10:28:50;28.38;;;12.65;;
51042;SDS011;37078;45.806;9.084;2022-10-18T10:31:32;31.38;;;13.05;;
51042;SDS011;37078;45.806;9.084;2022-10-18T10:36:49;29.85;;;12.50;;
51042;SDS011;37078;45.806;9.084;2022-10-18T10:39:16;28.30;;;12.95;;
51042;SDS011;37078;45.806;9.084;2022-10-18T10:41:50;26.27;;;13.00;;
51042;SDS011;37078;45.806;9.084;2022-10-18T10:44:18;31.65;;;12.05;;
51042;SDS011;37078;45.806;9.084;2022-10-18T10:46:50;31.00;;;11.82;;
51042;SDS011;37078;45.806;9.084;2022-10-18T10:49:18;26.98;;;13.07;;
51042;SDS011;37078;45.806;9.084;2022-10-18T10:51:52;29.83;;;12.55;;
51042;SDS011;37078;45.806;9.084;2022-10-18T10:54:23;24.60;;;11.77;;
51042;SDS011;37078;45.806;9.084;2022-10-18T10:59:24;27.08;;;12.23;;
51042;SDS011;37078;45.806;9.084;2022-10-18T11:04:46;26.08;;;11.68;;
51042;SDS011;37078;45.806;9.084;2022-10-18T11:12:41;25.02;;;10.82;;
51042;SDS011;37078;45.806;9.084;2022-10-18T11:22:37;20.52;;;10.60;;
51042;SDS011;37078;45.806;9.084;2022-10-18T11:25:11;24.45;;;10.48;;
51042;SDS011;37078;45.806;9.084;2022-10-18T11:27:45;24.10;;;11.43;;
51042;SDS011;37078;45.806;9.084;2022-10-18T11:30:31;23.48;;;11.13;;
51042;SDS011;37078;45.806;9.084;2022-10-18T11:36:04;22.83;;;12.43;;
51042;SDS011;37078;45.806;9.084;2022-10-18T11:38:55;26.50;;;10.40;;
51042;SDS011;37078;45.806;9.084;2022-10-18T11:41:29;23.88;;;10.60;;
51042;SDS011;37078;45.806;9.084;2022-10-18T11:44:18;22.55;;;10.82;;
51042;SDS011;37078;45.806;9.084;2022-10-18T11:47:36;23.50;;;10.45;;
51042;SDS011;37078;45.806;9.084;2022-10-18T11:50:07;22.70;;;10.57;;
51042;SDS011;37078;45.806;9.084;2022-10-18T11:55:22;20.15;;;10.25;;
51042;SDS011;37078;45.806;9.084;2022-10-18T11:57:56;23.95;;;11.23;;
51042;SDS011;37078;45.806;9.084;2022-10-18T12:06:14;21.35;;;9.65;;
51042;SDS011;37078;45.806;9.084;2022-10-18T12:08:53;21.67;;;10.38;;
51042;SDS011;37078;45.806;9.084;2022-10-18T12:11:25;22.52;;;10.25;;
51042;SDS011;37078;45.806;9.084;2022-10-18T12:13:56;22.70;;;10.82;;
51042;SDS011;37078;45.806;9.084;2022-10-18T12:16:26;22.17;;;10.60;;
51042;SDS011;37078;45.806;9.084;2022-10-18T12:18:55;19.60;;;9.13;;
51042;SDS011;37078;45.806;9.084;2022-10-18T12:21:24;21.38;;;9.60;;
51042;SDS011;37078;45.806;9.084;2022-10-18T12:26:32;21.50;;;10.18;;
51042;SDS011;37078;45.806;9.084;2022-10-18T12:31:42;20.85;;;9.70;;
51042;SDS011;37078;45.806;9.084;2022-10-18T12:39:29;18.88;;;8.60;;
51042;SDS011;37078;45.806;9.084;2022-10-18T12:42:23;19.92;;;9.57;;
51042;SDS011;37078;45.806;9.084;2022-10-18T12:45:00;20.30;;;9.77;;
51042;SDS011;37078;45.806;9.084;2022-10-18T12:47:29;20.80;;;9.45;;
51042;SDS011;37078;45.806;9.084;2022-10-18T12:49:55;20.65;;;9.20;;
51042;SDS011;37078;45.806;9.084;2022-10-18T12:52:24;19.75;;;8.95;;
51042;SDS011;37078;45.806;9.084;2022-10-18T13:16:48;18.02;;;8.68;;
51042;SDS011;37078;45.806;9.084;2022-10-18T13:19:27;17.42;;;8.52;;
51042;SDS011;37078;45.806;9.084;2022-10-18T13:22:19;18.93;;;9.20;;
51042;SDS011;37078;45.806;9.084;2022-10-18T13:27:41;18.05;;;8.88;;
51042;SDS011;37078;45.806;9.084;2022-10-18T13:38:57;17.30;;;8.38;;
51042;SDS011;37078;45.806;9.084;2022-10-18T13:44:26;18.35;;;8.65;;
51042;SDS011;37078;45.806;9.084;2022-10-18T14:08:21;15.40;;;7.53;;
51042;SDS011;37078;45.806;9.084;2022-10-18T14:13:42;15.90;;;7.30;;
51042;SDS011;37078;45.806;9.084;2022-10-18T14:22:08;16.42;;;8.32;;
51042;SDS011;37078;45.806;9.084;2022-10-18T14:24:43;17.10;;;7.50;;
51042;SDS011;37078;45.806;9.084;2022-10-18T14:27:23;16.88;;;8.00;;
51042;SDS011;37078;45.806;9.084;2022-10-18T14:32:36;15.95;;;7.47;;
51042;SDS011;37078;45.806;9.084;2022-10-18T14:35:02;14.95;;;7.40;;
51042;SDS011;37078;45.806;9.084;2022-10-18T14:37:29;16.83;;;7.88;;
51042;SDS011;37078;45.806;9.084;2022-10-18T14:39:59;18.23;;;8.43;;
51042;SDS011;37078;45.806;9.084;2022-10-18T14:42:25;16.50;;;7.22;;
51042;SDS011;37078;45.806;9.084;2022-10-18T14:44:52;16.70;;;7.28;;
51042;SDS011;37078;45.806;9.084;2022-10-18T14:47:27;18.30;;;8.18;;
51042;SDS011;37078;45.806;9.084;2022-10-18T14:49:54;15.30;;;7.13;;
51042;SDS011;37078;45.806;9.084;2022-10-18T14:52:24;16.27;;;8.30;;
51042;SDS011;37078;45.806;9.084;2022-10-18T14:54:55;17.60;;;7.65;;
51042;SDS011;37078;45.806;9.084;2022-10-18T14:57:27;17.73;;;7.50;;
51042;SDS011;37078;45.806;9.084;2022-10-18T14:59:53;15.05;;;7.35;;
51042;SDS011;37078;45.806;9.084;2022-10-18T15:02:28;19.90;;;8.30;;
51042;SDS011;37078;45.806;9.084;2022-10-18T15:05:08;17.88;;;8.00;;
51042;SDS011;37078;45.806;9.084;2022-10-18T15:07:42;15.73;;;7.15;;
51042;SDS011;37078;45.806;9.084;2022-10-18T15:10:13;16.20;;;7.63;;
51042;SDS011;37078;45.806;9.084;2022-10-18T15:12:51;15.95;;;7.78;;
51042;SDS011;37078;45.806;9.084;2022-10-18T15:15:24;16.30;;;7.75;;
51042;SDS011;37078;45.806;9.084;2022-10-18T15:17:52;16.60;;;7.82;;
51042;SDS011;37078;45.806;9.084;2022-10-18T15:22:49;16.75;;;7.53;;
51042;SDS011;37078;45.806;9.084;2022-10-18T15:27:52;15.15;;;7.60;;
51042;SDS011;37078;45.806;9.084;2022-10-18T15:32:55;15.30;;;7.47;;
51042;SDS011;37078;45.806;9.084;2022-10-18T15:35:25;16.90;;;7.50;;
51042;SDS011;37078;45.806;9.084;2022-10-18T15:37:51;16.20;;;8.07;;
51042;SDS011;37078;45.806;9.084;2022-10-18T15:42:46;16.00;;;7.38;;
51042;SDS011;37078;45.806;9.084;2022-10-18T16:00:45;16.45;;;7.53;;
51042;SDS011;37078;45.806;9.084;2022-10-18T16:03:12;14.80;;;7.55;;
51042;SDS011;37078;45.806;9.084;2022-10-18T16:05:39;14.52;;;7.03;;
51042;SDS011;37078;45.806;9.084;2022-10-18T16:08:05;16.15;;;8.25;;
51042;SDS011;37078;45.806;9.084;2022-10-18T16:10:30;16.05;;;7.75;;
51042;SDS011;37078;45.806;9.084;2022-10-18T16:12:56;14.65;;;7.47;;
51042;SDS011;37078;45.806;9.084;2022-10-18T16:15:21;14.85;;;7.07;;
51042;SDS011;37078;45.806;9.084;2022-10-18T16:17:47;15.75;;;7.55;;
51042;SDS011;37078;45.806;9.084;2022-10-18T16:20:20;14.43;;;7.20;;
51042;SDS011;37078;45.806;9.084;2022-10-18T16:22:47;14.82;;;7.22;;
51042;SDS011;37078;45.806;9.084;2022-10-18T16:25:12;15.13;;;7.97;;
51042;SDS011;37078;45.806;9.084;2022-10-18T16:27:38;16.23;;;7.90;;
51042;SDS011;37078;45.806;9.084;2022-10-18T16:30:36;17.10;;;7.90;;
51042;SDS011;37078;45.806;9.084;2022-10-18T16:32:58;18.08;;;7.65;;
51042;SDS011;37078;45.806;9.084;2022-10-18T16:35:23;15.38;;;7.28;;
51042;SDS011;37078;45.806;9.084;2022-10-18T16:37:49;16.48;;;7.72;;
51042;SDS011;37078;45.806;9.084;2022-10-18T16:40:19;17.08;;;7.90;;
51042;SDS011;37078;45.806;9.084;2022-10-18T16:42:47;15.32;;;7.18;;
51042;SDS011;37078;45.806;9.084;2022-10-18T16:45:12;17.15;;;7.78;;
51042;SDS011;37078;45.806;9.084;2022-10-18T16:47:37;17.00;;;7.78;;
51042;SDS011;37078;45.806;9.084;2022-10-18T16:50:03;16.17;;;7.45;;
51042;SDS011;37078;45.806;9.084;2022-10-18T16:52:32;14.63;;;7.20;;
51042;SDS011;37078;45.806;9.084;2022-10-18T16:54:57;16.83;;;7.72;;
51042;SDS011;37078;45.806;9.084;2022-10-18T16:57:23;14.70;;;7.15;;
51042;SDS011;37078;45.806;9.084;2022-10-18T16:59:50;16.95;;;7.43;;
51042;SDS011;37078;45.806;9.084;2022-10-18T17:02:15;16.90;;;7.53;;
51042;SDS011;37078;45.806;9.084;2022-10-18T17:04:40;15.88;;;7.03;;
51042;SDS011;37078;45.806;9.084;2022-10-18T17:07:06;15.05;;;7.60;;
51042;SDS011;37078;45.806;9.084;2022-10-18T17:09:31;15.55;;;7.55;;
51042;SDS011;37078;45.806;9.084;2022-10-18T17:11:58;16.58;;;7.20;;
51042;SDS011;37078;45.806;9.084;2022-10-18T17:14:24;14.95;;;7.32;;
51042;SDS011;37078;45.806;9.084;2022-10-18T17:16:49;16.83;;;7.45;;
51042;SDS011;37078;45.806;9.084;2022-10-18T17:19:14;15.88;;;7.10;;
51042;SDS011;37078;45.806;9.084;2022-10-18T17:21:40;14.73;;;7.60;;
51042;SDS011;37078;45.806;9.084;2022-10-18T17:24:05;16.95;;;7.30;;
51042;SDS011;37078;45.806;9.084;2022-10-18T17:26:32;17.17;;;8.65;;
51042;SDS011;37078;45.806;9.084;2022-10-18T17:28:59;16.52;;;8.25;;
51042;SDS011;37078;45.806;9.084;2022-10-18T17:31:27;16.23;;;8.27;;
51042;SDS011;37078;45.806;9.084;2022-10-18T17:33:54;17.40;;;8.43;;
51042;SDS011;37078;45.806;9.084;2022-10-18T17:36:22;16.95;;;8.80;;
51042;SDS011;37078;45.806;9.084;2022-10-18T17:38:51;19.88;;;8.98;;
51042;SDS011;37078;45.806;9.084;2022-10-18T17:41:17;18.25;;;9.77;;
51042;SDS011;37078;45.806;9.084;2022-10-18T17:43:42;17.13;;;9.10;;
51042;SDS011;37078;45.806;9.084;2022-10-18T17:46:09;17.25;;;9.35;;
51042;SDS011;37078;45.806;9.084;2022-10-18T17:48:35;18.40;;;9.07;;
51042;SDS011;37078;45.806;9.084;2022-10-18T17:51:05;18.42;;;10.13;;
51042;SDS011;37078;45.806;9.084;2022-10-18T17:53:34;18.75;;;9.85;;
51042;SDS011;37078;45.806;9.084;2022-10-18T17:56:00;20.35;;;10.00;;